Time;durP1;ratioP1;P1;durP2;ratioP2;P2;SDS_P1;SDS_P2;PMS_P1;PMS_P2;Temp;Humidity;BMP_temperature;BMP_pressure;BME280_temperature;BME280_humidity;BME280_pressure;Samples;Min_cycle;Max_cycle;Signal;HPM_P1;HPM_P2
2021/09/22 00:00:26;;;;;;;12.53;9.45;;;;;;;9.70;82.86;100933.39;2124870;82;20975;-76
2021/09/22 00:03:28;;;;;;;12.35;9.23;;;;;;;9.71;82.94;100927.09;2120077;82;21566;-76
2021/09/22 00:06:29;;;;;;;12.78;8.63;;;;;;;9.72;82.95;100925.31;2125288;82;21063;-76
2021/09/22 00:09:32;;;;;;;12.55;8.43;;;;;;;9.72;82.99;100922.16;2124063;82;21474;-76
2021/09/22 00:12:34;;;;;;;11.05;8.68;;;;;;;9.74;82.97;100912.73;2115829;82;21021;-76
2021/09/22 00:15:36;;;;;;;10.43;8.05;;;;;;;9.72;82.94;100916.03;2121810;82;21135;-75
2021/09/22 00:18:37;;;;;;;11.57;9.08;;;;;;;9.72;82.92;100914.22;2123101;82;21020;-76
2021/09/22 00:21:39;;;;;;;12.58;8.23;;;;;;;9.71;82.91;100912.52;2120930;82;20978;-76
2021/09/22 00:24:41;;;;;;;11.38;8.58;;;;;;;9.74;82.93;100900.80;2123540;82;20976;-77
2021/09/22 00:27:42;;;;;;;13.55;8.35;;;;;;;9.76;82.94;100902.83;2121514;82;21118;-77
2021/09/22 00:30:44;;;;;;;10.45;8.50;;;;;;;9.77;82.93;100894.75;2123646;82;21013;-77
2021/09/22 00:33:46;;;;;;;13.70;8.13;;;;;;;9.77;82.89;100887.27;2123253;82;21091;-76
2021/09/22 00:36:49;;;;;;;11.63;9.03;;;;;;;9.79;82.91;100882.67;2122174;82;21075;-77
2021/09/22 00:39:50;;;;;;;11.12;8.73;;;;;;;9.79;82.96;100881.34;2126152;82;21487;-77
2021/09/22 00:42:53;;;;;;;14.73;9.48;;;;;;;9.79;83.01;100875.55;2118146;82;21118;-77
2021/09/22 00:46:00;;;;;;;12.93;9.20;;;;;;;9.81;83.04;100877.58;2122602;82;21104;-76
2021/09/22 00:48:58;;;;;;;11.20;8.50;;;;;;;9.81;82.98;100873.59;2122063;82;20989;-77
2021/09/22 00:52:02;;;;;;;11.63;8.05;;;;;;;9.79;82.96;100866.77;2122079;82;21066;-76
2021/09/22 00:55:05;;;;;;;14.18;9.40;;;;;;;9.79;83.00;100868.92;2120148;82;20972;-77
2021/09/22 00:58:10;;;;;;;14.90;9.05;;;;;;;9.79;82.95;100864.95;2119612;82;21039;-76
2021/09/22 01:01:12;;;;;;;14.00;8.10;;;;;;;9.78;82.92;100852.69;2116410;82;21023;-76
2021/09/22 01:04:13;;;;;;;13.50;8.60;;;;;;;9.76;82.85;100852.48;2119655;82;20987;-76
2021/09/22 01:07:16;;;;;;;13.85;9.13;;;;;;;9.74;83.01;100850.45;2120556;82;21110;-76
2021/09/22 01:10:19;;;;;;;12.13;8.13;;;;;;;9.72;83.03;100846.64;2121429;82;21114;-76
2021/09/22 01:13:22;;;;;;;12.40;8.08;;;;;;;9.72;83.07;100849.29;2124633;82;21169;-76
2021/09/22 01:16:24;;;;;;;9.93;8.30;;;;;;;9.71;83.07;100839.64;2121435;82;21061;-76
2021/09/22 01:19:27;;;;;;;10.98;8.03;;;;;;;9.68;83.04;100839.11;2117467;82;21027;-76
2021/09/22 01:22:29;;;;;;;10.82;7.65;;;;;;;9.69;83.08;100839.47;2119265;82;21083;-76
2021/09/22 01:25:40;;;;;;;12.40;8.33;;;;;;;9.66;83.06;100839.27;2123449;82;21068;-77
2021/09/22 01:28:43;;;;;;;12.30;8.18;;;;;;;9.64;83.11;100829.29;2120922;82;21063;-76
2021/09/22 01:31:45;;;;;;;10.00;7.83;;;;;;;9.63;83.15;100831.11;2120399;82;21065;-75
2021/09/22 01:34:47;;;;;;;12.78;8.48;;;;;;;9.64;83.17;100827.47;2138061;82;21053;-77
2021/09/22 01:37:51;;;;;;;13.20;9.20;;;;;;;9.63;83.12;100826.30;2134652;81;21158;-76
2021/09/22 01:41:05;;;;;;;10.50;8.53;;;;;;;9.65;83.28;100817.70;2084076;82;21044;-76
2021/09/22 01:44:07;;;;;;;12.40;8.28;;;;;;;9.65;83.34;100811.08;2131737;82;21490;-76
2021/09/22 01:47:19;;;;;;;15.83;9.08;;;;;;;9.64;83.26;100812.06;2121120;82;21114;-76
2021/09/22 01:50:32;;;;;;;10.20;8.08;;;;;;;9.60;83.27;100811.53;2132462;81;21094;-77
2021/09/22 01:53:35;;;;;;;11.28;7.55;;;;;;;9.60;83.29;100804.05;2135523;82;21008;-77
2021/09/22 01:56:37;;;;;;;12.47;9.33;;;;;;;9.57;83.32;100803.87;2139991;81;21133;-76
2021/09/22 01:59:40;;;;;;;13.58;8.13;;;;;;;9.53;83.34;100795.02;2134871;82;21038;-77
2021/09/22 02:02:49;;;;;;;10.80;7.87;;;;;;;9.48;83.37;100791.95;2130739;82;21078;-76
2021/09/22 02:05:58;;;;;;;10.50;7.95;;;;;;;9.45;83.50;100793.56;2134161;81;21112;-76
2021/09/22 02:09:00;;;;;;;11.15;8.05;;;;;;;9.41;83.55;100791.20;2135808;81;21027;-76
2021/09/22 02:12:15;;;;;;;9.60;7.55;;;;;;;9.40;83.58;100792.20;2119592;82;21071;-76
2021/09/22 02:15:16;;;;;;;13.08;8.20;;;;;;;9.36;83.74;100782.84;2136446;81;20999;-76
2021/09/22 02:18:20;;;;;;;12.05;9.08;;;;;;;9.29;83.77;100785.73;2129767;82;21020;-76
2021/09/22 02:21:22;;;;;;;9.95;7.83;;;;;;;9.26;83.81;100782.52;2112901;82;20996;-76
2021/09/22 02:24:24;;;;;;;10.45;7.53;;;;;;;9.25;83.89;100778.20;2135187;82;21088;-76
2021/09/22 02:27:26;;;;;;;11.25;8.25;;;;;;;9.21;83.95;100772.37;2134685;81;21581;-76
2021/09/22 02:30:28;;;;;;;12.35;8.08;;;;;;;9.18;83.94;100777.95;2132112;82;21590;-76
2021/09/22 02:33:31;;;;;;;10.75;6.72;;;;;;;9.16;84.06;100768.80;2128320;81;21018;-76
2021/09/22 02:36:33;;;;;;;10.63;7.33;;;;;;;9.13;84.09;100765.62;2129354;82;21069;-76
2021/09/22 02:39:37;;;;;;;11.18;7.20;;;;;;;9.08;84.15;100767.84;2124196;82;21027;-76
2021/09/22 02:42:39;;;;;;;10.03;7.37;;;;;;;9.07;84.38;100773.64;2123306;82;21053;-76
2021/09/22 02:45:41;;;;;;;9.05;7.03;;;;;;;9.05;84.40;100771.61;2126843;82;20995;-76
2021/09/22 02:48:43;;;;;;;12.63;8.10;;;;;;;9.04;84.70;100766.44;2128462;82;21014;-76
2021/09/22 02:51:45;;;;;;;11.25;7.85;;;;;;;9.01;84.60;100775.98;2124081;82;21022;-76
2021/09/22 02:54:46;;;;;;;10.15;7.70;;;;;;;8.97;84.65;100766.17;2128908;82;21546;-76
2021/09/22 02:57:49;;;;;;;9.10;7.42;;;;;;;8.93;84.76;100756.37;2125705;82;21057;-76
2021/09/22 03:00:52;;;;;;;11.38;8.15;;;;;;;8.92;84.79;100761.30;2126766;82;21003;-76
2021/09/22 03:03:54;;;;;;;9.78;8.38;;;;;;;8.89;84.88;100761.58;2125998;82;21105;-76
2021/09/22 03:06:56;;;;;;;10.93;8.03;;;;;;;8.88;84.94;100759.09;2125717;82;20978;-76
2021/09/22 03:09:58;;;;;;;9.53;7.20;;;;;;;8.87;85.07;100761.37;2127760;82;21106;-76
2021/09/22 03:13:01;;;;;;;9.65;7.60;;;;;;;8.88;85.18;100756.44;2128638;82;22342;-75
2021/09/22 03:16:05;;;;;;;11.33;8.85;;;;;;;8.85;85.18;100758.87;2121926;82;21003;-76
2021/09/22 03:19:07;;;;;;;14.63;8.35;;;;;;;8.84;85.31;100759.00;2125109;82;21089;-76
2021/09/22 03:22:09;;;;;;;10.58;7.97;;;;;;;8.86;85.34;100762.35;2127358;82;21458;-76
2021/09/22 03:25:29;;;;;;;12.40;7.95;;;;;;;8.83;85.29;100760.82;2126248;82;21129;-75
2021/09/22 03:28:32;;;;;;;11.40;7.90;;;;;;;8.80;85.25;100754.98;2125107;82;21077;-76
2021/09/22 03:31:34;;;;;;;9.35;7.08;;;;;;;8.78;85.25;100754.27;2126380;82;21047;-75
2021/09/22 03:34:36;;;;;;;9.80;7.80;;;;;;;8.75;85.23;100748.77;2124577;82;21132;-75
2021/09/22 03:37:37;;;;;;;11.10;8.15;;;;;;;8.69;85.27;100751.48;2129785;82;21104;-76
2021/09/22 03:40:40;;;;;;;12.98;9.25;;;;;;;8.69;85.40;100758.59;2122488;82;21385;-76
2021/09/22 03:43:42;;;;;;;10.88;8.08;;;;;;;8.67;85.42;100755.24;2122799;82;21634;-76
2021/09/22 03:46:45;;;;;;;11.88;8.43;;;;;;;8.65;85.46;100760.69;2123639;82;21041;-76
2021/09/22 03:49:46;;;;;;;12.68;8.20;;;;;;;8.66;85.44;100768.13;2126015;82;21038;-76
2021/09/22 03:52:50;;;;;;;12.68;8.83;;;;;;;8.65;85.52;100770.44;2124338;82;21124;-75
2021/09/22 03:55:51;;;;;;;13.48;8.18;;;;;;;8.64;85.54;100769.58;2124942;82;21092;-76
2021/09/22 03:58:54;;;;;;;16.48;8.63;;;;;;;8.62;85.50;100760.14;2132251;82;20984;-76
2021/09/22 04:01:56;;;;;;;13.22;8.65;;;;;;;8.58;85.49;100759.56;2130812;82;21085;-75
2021/09/22 04:04:58;;;;;;;11.35;8.23;;;;;;;8.58;85.55;100769.30;2126937;82;21665;-75
2021/09/22 04:07:59;;;;;;;14.75;8.23;;;;;;;8.57;85.62;100775.58;2122682;82;21179;-76
2021/09/22 04:11:01;;;;;;;11.88;7.15;;;;;;;8.56;85.66;100777.86;2127975;82;20957;-75
2021/09/22 04:14:03;;;;;;;12.30;8.23;;;;;;;8.55;85.66;100780.17;2130167;82;20999;-76
2021/09/22 04:17:05;;;;;;;17.23;8.30;;;;;;;8.53;85.70;100780.29;2126230;82;21569;-77
2021/09/22 04:20:09;;;;;;;14.78;8.53;;;;;;;8.52;85.79;100779.95;2126597;82;21007;-75
2021/09/22 04:23:12;;;;;;;13.85;8.50;;;;;;;8.50;85.83;100777.46;2122574;82;21578;-72
2021/09/22 04:26:14;;;;;;;15.00;8.35;;;;;;;8.47;85.86;100780.35;2126984;82;20972;-73
2021/09/22 04:29:17;;;;;;;11.60;8.15;;;;;;;8.46;85.96;100780.02;2127508;82;20975;-74
2021/09/22 04:32:30;;;;;;;14.47;8.33;;;;;;;8.43;86.03;100782.10;2082882;82;21006;-76
2021/09/22 04:35:52;;;;;;;13.15;8.73;;;;;;;8.40;86.16;100795.59;2127799;82;21014;-76
2021/09/22 04:38:55;;;;;;;11.55;7.25;;;;;;;8.40;86.23;100796.43;2075739;82;21071;-77
2021/09/22 04:42:15;;;;;;;14.33;8.77;;;;;;;8.42;86.34;100797.59;2128288;82;20995;-75
2021/09/22 04:45:36;;;;;;;11.30;7.62;;;;;;;8.41;86.32;100810.48;2127449;82;21042;-76
2021/09/22 04:48:56;;;;;;;11.83;7.95;;;;;;;8.41;86.40;100811.31;2124408;82;21153;-73
2021/09/22 04:52:17;;;;;;;12.68;8.75;;;;;;;8.41;86.47;100815.28;2125369;82;20995;-79
2021/09/22 04:55:23;;;;;;;12.65;9.13;;;;;;;8.40;86.45;100820.23;2096193;82;21094;-78
2021/09/22 04:58:43;;;;;;;11.12;8.00;;;;;;;8.44;86.47;100823.44;2079143;84;20995;-77
2021/09/22 05:02:03;;;;;;;17.05;8.73;;;;;;;8.46;86.50;100819.69;2121423;82;21148;-76
2021/09/22 05:05:23;;;;;;;17.70;9.40;;;;;;;8.47;86.54;100820.02;2118949;82;21077;-77
2021/09/22 05:08:43;;;;;;;14.60;8.27;;;;;;;8.46;86.53;100818.85;2123836;82;21166;-72
2021/09/22 05:12:04;;;;;;;11.93;8.48;;;;;;;8.46;86.57;100817.04;2132741;82;21067;-74
2021/09/22 05:15:24;;;;;;;11.70;8.50;;;;;;;8.47;86.65;100808.61;2123953;82;21091;-75
2021/09/22 05:18:44;;;;;;;13.05;8.63;;;;;;;8.49;86.63;100819.41;2120056;82;21012;-74
2021/09/22 05:21:51;;;;;;;10.98;8.10;;;;;;;8.51;86.59;100818.80;2104214;82;20992;-75
2021/09/22 05:25:11;;;;;;;12.13;8.38;;;;;;;8.53;86.59;100823.47;2126877;82;21119;-75
2021/09/22 05:28:31;;;;;;;11.50;9.18;;;;;;;8.58;86.55;100827.01;2125553;82;21577;-76
2021/09/22 05:31:51;;;;;;;11.83;8.17;;;;;;;8.64;86.61;100815.05;2125897;82;21059;-75
2021/09/22 05:35:12;;;;;;;12.28;8.18;;;;;;;8.71;86.64;100818.83;2128601;82;21032;-75
2021/09/22 05:38:32;;;;;;;16.03;8.73;;;;;;;8.85;86.17;100818.91;2122971;82;21089;-77
2021/09/22 05:41:52;;;;;;;11.68;8.35;;;;;;;8.85;86.17;100818.91;2119358;82;21938;-75
2021/09/22 05:45:14;;;;;;;10.55;8.18;;;;;;;8.91;86.39;100831.59;2119439;82;21590;-75
2021/09/22 05:48:34;;;;;;;11.25;7.80;;;;;;;8.98;86.39;100836.20;2125209;82;21064;-78
2021/09/22 05:51:54;;;;;;;13.53;8.20;;;;;;;9.03;86.40;100826.98;2114058;82;21071;-79
2021/09/22 05:55:14;;;;;;;12.20;8.47;;;;;;;9.05;86.19;100830.34;2119448;82;21060;-75
2021/09/22 05:58:34;;;;;;;10.73;8.00;;;;;;;9.04;86.24;100837.91;2124683;82;21783;-75
2021/09/22 06:01:55;;;;;;;9.40;7.23;;;;;;;9.02;86.40;100832.77;2121382;82;21114;-73
2021/09/22 06:05:15;;;;;;;11.40;7.00;;;;;;;9.04;86.52;100848.50;2120004;82;21071;-72
2021/09/22 06:08:35;;;;;;;11.50;6.97;;;;;;;9.11;86.64;100852.28;2121649;82;21084;-74
2021/09/22 06:11:38;;;;;;;9.35;6.65;;;;;;;9.28;86.94;100856.88;2119074;82;21091;-74
2021/09/22 06:14:42;;;;;;;11.30;7.12;;;;;;;9.40;86.67;100862.39;2119576;82;21523;-75
2021/09/22 06:17:43;;;;;;;9.10;6.50;;;;;;;9.52;86.54;100863.56;2123255;82;21033;-76
2021/09/22 06:20:45;;;;;;;10.78;6.78;;;;;;;9.57;86.30;100871.43;2120576;82;20988;-77
2021/09/22 06:23:52;;;;;;;10.75;7.00;;;;;;;9.61;86.04;100873.30;2117123;82;21016;-76
2021/09/22 06:26:52;;;;;;;11.80;8.20;;;;;;;9.61;85.86;100869.33;2118564;82;21086;-76
2021/09/22 06:29:54;;;;;;;10.25;7.35;;;;;;;9.60;85.54;100868.49;2119118;82;21080;-76
2021/09/22 06:32:55;;;;;;;11.65;8.10;;;;;;;9.61;85.60;100870.16;2125847;82;21043;-77
2021/09/22 06:36:17;;;;;;;10.72;8.28;;;;;;;9.64;85.66;100876.98;1991396;87;21054;-76
2021/09/22 06:39:19;;;;;;;10.55;7.80;;;;;;;9.66;85.64;100880.34;1992577;87;21019;-75
2021/09/22 06:42:22;;;;;;;9.95;7.25;;;;;;;9.67;85.54;100880.67;2085665;82;21094;-76
2021/09/22 06:45:23;;;;;;;9.78;7.72;;;;;;;9.67;85.54;100883.32;2117701;82;20972;-76
2021/09/22 06:48:25;;;;;;;9.83;7.42;;;;;;;9.60;85.46;100891.48;2116915;82;21479;-76
2021/09/22 06:52:16;;;;;;;10.85;7.92;;;;;;;9.55;85.51;100897.72;2117008;82;21001;-76
2021/09/22 06:55:18;;;;;;;9.80;8.10;;;;;;;9.49;85.53;100902.23;2121435;82;21573;-76
2021/09/22 06:58:20;;;;;;;10.48;8.08;;;;;;;9.43;85.63;100901.84;2123745;82;21025;-76
2021/09/22 07:01:21;;;;;;;21.60;8.45;;;;;;;9.46;85.79;100906.02;2119571;82;21028;-76
2021/09/22 07:04:23;;;;;;;11.80;8.23;;;;;;;9.51;85.80;100910.88;2120494;82;21463;-76
2021/09/22 07:07:24;;;;;;;9.35;7.12;;;;;;;9.54;85.76;100904.80;2120854;82;20975;-76
2021/09/22 07:10:31;;;;;;;8.95;6.10;;;;;;;9.54;85.51;100914.56;2120803;82;20991;-76
2021/09/22 07:13:31;;;;;;;6.22;5.60;;;;;;;9.57;85.43;100911.17;2119913;82;21031;-76
2021/09/22 07:16:33;;;;;;;7.62;5.65;;;;;;;9.61;85.49;100914.37;2121827;82;21050;-75
2021/09/22 07:19:35;;;;;;;7.20;5.50;;;;;;;9.61;85.34;100917.02;2122808;82;21031;-77
2021/09/22 07:22:38;;;;;;;6.22;4.97;;;;;;;9.61;85.19;100921.83;2121632;82;21522;-76
2021/09/22 07:25:39;;;;;;;6.08;4.67;;;;;;;9.65;85.41;100930.31;2120011;82;21510;-76
2021/09/22 07:28:43;;;;;;;5.17;4.00;;;;;;;9.67;85.10;100929.70;2121216;82;21063;-76
2021/09/22 07:31:45;;;;;;;4.87;3.85;;;;;;;9.71;84.56;100935.55;2121512;82;21126;-76
2021/09/22 07:34:47;;;;;;;4.17;3.72;;;;;;;9.73;84.51;100938.40;2122512;82;21050;-76
2021/09/22 07:37:49;;;;;;;6.62;4.47;;;;;;;9.76;84.29;100931.48;2122051;82;21096;-76
2021/09/22 07:40:50;;;;;;;5.95;3.98;;;;;;;9.79;84.32;100944.45;2122494;82;20967;-77
2021/09/22 07:43:52;;;;;;;5.42;4.53;;;;;;;9.84;84.35;100942.22;2119459;82;21027;-76
2021/09/22 07:46:53;;;;;;;8.20;5.75;;;;;;;9.90;84.18;100946.62;2120836;82;21515;-77
2021/09/22 07:49:55;;;;;;;6.25;5.08;;;;;;;10.00;84.43;100946.95;2120976;82;21013;-77
2021/09/22 07:52:57;;;;;;;8.05;6.03;;;;;;;10.08;84.03;100952.88;2122082;82;21466;-77
2021/09/22 07:55:59;;;;;;;7.58;5.60;;;;;;;10.12;83.63;100959.55;2119353;82;21460;-77
2021/09/22 07:59:00;;;;;;;5.87;5.12;;;;;;;10.17;83.31;100961.28;2124606;82;22396;-78
2021/09/22 08:02:03;;;;;;;7.40;6.42;;;;;;;10.20;83.04;100962.33;2121414;82;21443;-77
2021/09/22 08:05:06;;;;;;;8.43;6.42;;;;;;;10.25;83.47;100972.52;2119696;82;21377;-77
2021/09/22 08:08:09;;;;;;;8.10;6.22;;;;;;;10.28;82.70;100982.37;2121181;82;21041;-77
2021/09/22 08:11:11;;;;;;;8.73;6.50;;;;;;;10.25;82.55;100983.13;2123715;82;21121;-77
2021/09/22 08:14:13;;;;;;;8.13;6.60;;;;;;;10.31;82.81;100987.38;2122165;82;21026;-78
2021/09/22 08:17:17;;;;;;;8.53;6.05;;;;;;;10.42;82.74;100990.86;2124435;82;21050;-77
2021/09/22 08:20:18;;;;;;;8.08;5.97;;;;;;;10.59;83.01;100998.05;2116656;82;21041;-77
2021/09/22 08:23:22;;;;;;;8.28;6.70;;;;;;;10.70;82.23;101003.19;2118689;82;21081;-77
2021/09/22 08:26:23;;;;;;;9.18;6.22;;;;;;;10.82;82.42;101000.34;2121826;82;21118;-77
2021/09/22 08:29:25;;;;;;;6.12;5.17;;;;;;;10.90;81.93;100993.31;2121402;82;21007;-77
2021/09/22 08:32:27;;;;;;;6.95;5.58;;;;;;;10.98;81.62;101002.70;2121421;82;20991;-77
2021/09/22 08:35:29;;;;;;;7.22;6.12;;;;;;;10.97;80.35;100997.03;2118222;82;21087;-78
2021/09/22 08:38:31;;;;;;;8.95;6.25;;;;;;;11.09;80.82;101000.31;2117734;82;20987;-77
2021/09/22 08:41:33;;;;;;;6.95;5.60;;;;;;;11.18;81.09;100999.44;2124850;82;21166;-77
2021/09/22 08:44:34;;;;;;;11.20;6.33;;;;;;;11.26;80.34;101003.98;2120098;82;21031;-77
2021/09/22 08:47:36;;;;;;;7.62;6.17;;;;;;;11.24;79.90;100999.84;2119497;82;21049;-77
2021/09/22 08:50:37;;;;;;;6.25;5.05;;;;;;;11.29;80.31;101002.85;2124591;82;20986;-79
2021/09/22 08:53:41;;;;;;;6.92;5.17;;;;;;;11.33;78.54;100997.59;2121670;82;22519;-77
2021/09/22 08:56:44;;;;;;;7.25;5.65;;;;;;;11.33;78.98;100975.84;2118464;82;21076;-77
2021/09/22 08:59:45;;;;;;;7.22;5.12;;;;;;;11.33;78.98;100975.84;2117068;82;21030;-78
2021/09/22 09:02:49;;;;;;;6.33;5.40;;;;;;;11.57;79.78;100992.53;2121566;82;21010;-77
2021/09/22 09:05:50;;;;;;;6.00;5.17;;;;;;;11.90;79.50;101008.79;2117882;82;21004;-80
2021/09/22 09:08:56;;;;;;;6.47;5.10;;;;;;;11.89;77.70;101009.29;2121201;82;21043;-79
2021/09/22 09:11:57;;;;;;;6.60;5.30;;;;;;;11.95;77.34;101010.50;2126140;82;21031;-78
2021/09/22 09:15:02;;;;;;;6.42;5.15;;;;;;;11.99;78.18;101009.19;2121155;82;21561;-78
2021/09/22 09:18:16;;;;;;;5.25;4.35;;;;;;;12.09;77.14;101012.60;2104616;82;20983;-79
2021/09/22 09:21:17;;;;;;;6.22;4.58;;;;;;;12.22;78.12;101000.70;2122332;82;21181;-79
2021/09/22 09:24:38;;;;;;;4.78;4.30;;;;;;;12.59;77.75;101007.11;2121195;82;21473;-79
2021/09/22 09:27:39;;;;;;;4.92;4.03;;;;;;;12.90;76.53;101011.42;2118980;82;20995;-79
2021/09/22 09:30:48;;;;;;;4.90;3.30;;;;;;;12.82;75.61;101007.89;2119768;82;21054;-79
2021/09/22 09:33:53;;;;;;;5.80;3.52;;;;;;;12.69;75.11;101011.80;2121214;82;21522;-79
2021/09/22 09:36:54;;;;;;;6.92;3.92;;;;;;;12.64;74.72;101015.94;2127533;82;21490;-78
2021/09/22 09:39:56;;;;;;;4.58;3.58;;;;;;;12.44;75.24;101018.81;2104203;82;21026;-78
2021/09/22 09:43:09;;;;;;;4.58;3.80;;;;;;;12.46;75.71;101027.48;2124764;82;21613;-78
2021/09/22 09:46:22;;;;;;;4.87;4.30;;;;;;;12.45;75.40;101015.69;2125641;82;21125;-79
2021/09/22 09:49:27;;;;;;;4.08;3.67;;;;;;;12.36;75.45;101023.25;2126599;82;21045;-78
2021/09/22 09:52:28;;;;;;;5.10;3.90;;;;;;;12.30;75.38;101029.56;2130183;82;21074;-79
2021/09/22 09:55:33;;;;;;;5.60;4.45;;;;;;;12.28;75.28;101026.22;2125927;82;21014;-79
2021/09/22 09:58:44;;;;;;;5.62;4.58;;;;;;;12.30;75.36;101031.37;2127984;82;21019;-79
2021/09/22 10:01:50;;;;;;;4.80;4.05;;;;;;;12.38;75.77;101029.27;2122435;82;21109;-79
2021/09/22 10:04:52;;;;;;;5.60;4.37;;;;;;;12.41;75.45;101029.78;2123632;82;21957;-79
2021/09/22 10:07:55;;;;;;;5.67;4.75;;;;;;;12.40;75.05;101026.79;2127716;82;21519;-79
2021/09/22 10:11:02;;;;;;;6.95;4.58;;;;;;;12.41;75.16;101032.94;2128295;82;21193;-78
2021/09/22 10:14:02;;;;;;;7.75;4.72;;;;;;;12.43;75.13;101034.46;2125548;82;21751;-79
2021/09/22 10:17:06;;;;;;;4.62;4.12;;;;;;;12.40;74.98;101036.11;2130535;82;21046;-78
2021/09/22 10:20:09;;;;;;;5.20;4.70;;;;;;;12.40;75.26;101033.94;2126192;82;21022;-78
2021/09/22 10:23:13;;;;;;;6.72;4.83;;;;;;;12.43;75.21;101036.29;2127671;82;21553;-79
2021/09/22 10:26:16;;;;;;;7.33;5.08;;;;;;;12.46;74.92;101029.32;2127050;82;20975;-78
2021/09/22 10:29:35;;;;;;;5.03;3.87;;;;;;;12.40;74.50;101028.62;2125082;82;21725;-79
2021/09/22 10:32:47;;;;;;;6.28;5.20;;;;;;;12.38;74.61;101031.42;2125815;82;21121;-79
2021/09/22 10:35:59;;;;;;;7.10;4.95;;;;;;;12.42;74.90;101037.30;2134689;81;21518;-78
2021/09/22 10:39:10;;;;;;;6.00;5.33;;;;;;;12.46;74.83;101022.67;2143586;81;21695;-78
2021/09/22 10:42:28;;;;;;;4.85;4.15;;;;;;;12.46;74.59;101024.83;2141653;81;21007;-78
2021/09/22 10:45:29;;;;;;;6.50;4.58;;;;;;;12.38;73.96;101027.44;2142934;81;21017;-78
2021/09/22 10:48:31;;;;;;;5.75;4.78;;;;;;;12.36;74.28;101033.90;2141880;81;21035;-74
2021/09/22 10:51:41;;;;;;;7.12;5.12;;;;;;;12.27;74.32;101031.17;2144636;81;20979;-79
2021/09/22 10:55:08;;;;;;;5.62;4.85;;;;;;;12.25;74.26;101025.70;2142235;81;21442;-77
2021/09/22 10:58:15;;;;;;;4.85;4.35;;;;;;;12.26;74.41;101023.37;2148990;81;21073;-78
2021/09/22 11:01:36;;;;;;;6.17;4.72;;;;;;;12.31;74.36;101023.74;2147165;81;21061;-78
2021/09/22 11:05:00;;;;;;;5.17;4.47;;;;;;;12.35;73.84;101030.41;2134969;81;21011;-78
2021/09/22 11:08:08;;;;;;;5.87;4.55;;;;;;;12.41;74.11;101027.12;2142297;81;21046;-78
2021/09/22 11:11:10;;;;;;;6.08;4.00;;;;;;;12.61;73.91;101025.58;2142018;81;21443;-78
2021/09/22 11:14:33;;;;;;;7.03;4.22;;;;;;;12.91;73.23;101025.06;2142339;81;21521;-78
2021/09/22 11:17:36;;;;;;;5.03;4.05;;;;;;;13.07;73.04;101024.81;2141639;81;21018;-78
2021/09/22 11:20:38;;;;;;;6.20;5.10;;;;;;;13.15;72.72;101019.48;2144897;81;20955;-78
2021/09/22 11:23:42;;;;;;;5.25;4.42;;;;;;;13.15;72.42;101019.48;2142037;81;21078;-78
2021/09/22 11:26:57;;;;;;;5.58;4.35;;;;;;;13.10;72.48;101017.32;2143336;81;21026;-78
2021/09/22 11:30:01;;;;;;;6.47;4.17;;;;;;;13.05;72.57;101018.30;2143616;81;21041;-78
2021/09/22 11:33:03;;;;;;;7.20;4.42;;;;;;;12.94;72.19;101020.75;2144312;81;20976;-78
2021/09/22 11:36:07;;;;;;;7.15;4.22;;;;;;;13.03;72.64;101027.44;2135770;81;21051;-78
2021/09/22 11:39:25;;;;;;;5.78;4.30;;;;;;;13.09;72.38;101021.47;2126210;82;21086;-79
2021/09/22 12:01:00;;;;;;;4.45;4.03;;;;;;;14.05;70.33;101011.17;2120293;82;22329;-78
2021/09/22 12:04:01;;;;;;;4.15;3.75;;;;;;;13.98;69.73;101016.00;2121954;82;21620;-78
2021/09/22 12:07:08;;;;;;;6.25;4.03;;;;;;;13.94;69.92;101005.31;2123201;82;21617;-78
2021/09/22 12:10:08;;;;;;;4.03;3.62;;;;;;;13.98;69.95;101007.99;2122487;82;22581;-78
2021/09/22 12:13:10;;;;;;;3.98;3.58;;;;;;;14.09;69.01;101012.48;2122170;82;21071;-78
2021/09/22 12:16:12;;;;;;;4.45;3.70;;;;;;;14.14;68.78;101011.99;2120369;82;21039;-78
2021/09/22 12:19:14;;;;;;;6.65;4.08;;;;;;;14.14;68.59;101014.66;2121924;82;21845;-77
2021/09/22 12:22:24;;;;;;;4.80;3.70;;;;;;;14.25;68.91;101019.66;2119087;82;21055;-77
2021/09/22 12:25:25;;;;;;;4.15;3.77;;;;;;;14.39;68.62;101019.95;2124099;82;21543;-78
2021/09/22 12:28:27;;;;;;;4.40;4.00;;;;;;;14.47;67.63;101022.60;2121426;82;21027;-78
2021/09/22 12:31:28;;;;;;;5.20;4.45;;;;;;;14.43;67.63;101024.79;2117312;82;21024;-77
2021/09/22 12:34:30;;;;;;;4.45;4.05;;;;;;;14.32;67.38;101016.63;2121048;82;21453;-78
2021/09/22 12:37:33;;;;;;;7.92;4.25;;;;;;;14.29;67.48;101015.63;2127636;82;21020;-77
2021/09/22 12:40:47;;;;;;;5.22;4.72;;;;;;;14.39;67.81;101014.13;2127069;82;21514;-77
2021/09/22 12:44:00;;;;;;;5.60;4.70;;;;;;;14.44;67.53;101009.59;2128382;82;21099;-77
2021/09/22 12:47:01;;;;;;;4.78;4.28;;;;;;;14.50;67.23;101011.58;2125394;82;21031;-78
2021/09/22 12:50:11;;;;;;;5.53;5.03;;;;;;;14.57;67.31;100999.25;2128269;82;21533;-77
2021/09/22 12:53:19;;;;;;;6.23;4.83;;;;;;;14.62;66.92;100998.75;2126542;82;21533;-77
2021/09/22 12:56:21;;;;;;;5.25;4.75;;;;;;;14.66;67.04;101000.89;2125150;82;21483;-77
2021/09/22 12:59:30;;;;;;;5.95;4.83;;;;;;;14.66;66.10;101010.23;2122106;82;21027;-77
2021/09/22 13:02:31;;;;;;;5.50;4.90;;;;;;;14.57;65.85;100999.25;2125857;82;20975;-77
2021/09/22 13:05:40;;;;;;;4.28;3.80;;;;;;;14.50;65.93;100992.89;2123885;82;21078;-77
2021/09/22 13:09:02;;;;;;;4.35;3.85;;;;;;;14.48;65.52;100997.08;2127122;82;21006;-77
2021/09/22 13:12:05;;;;;;;4.70;4.20;;;;;;;14.48;65.65;100989.58;2124887;82;21512;-77
2021/09/22 13:46:08;;;;;;;8.00;4.83;;;;;;;13.65;65.73;101000.80;2157897;80;21060;-77
2021/09/22 13:49:11;;;;;;;5.55;4.80;;;;;;;13.59;65.55;100986.80;2157295;80;21380;-78
2021/09/22 13:52:12;;;;;;;8.58;5.67;;;;;;;13.41;65.70;100997.61;2157835;80;21533;-78
2021/09/22 13:55:14;;;;;;;11.93;7.03;;;;;;;13.35;66.24;100997.45;2163685;80;21539;-78
2021/09/22 13:58:16;;;;;;;8.05;6.45;;;;;;;13.28;66.61;100993.25;2163875;80;21514;-78
2021/09/22 14:01:18;;;;;;;11.18;6.60;;;;;;;13.21;66.89;100994.88;2157366;80;21132;-78
2021/09/22 14:04:20;;;;;;;7.95;6.83;;;;;;;13.18;67.26;100997.36;2159231;80;20987;-81
2021/09/22 14:07:21;;;;;;;11.38;8.15;;;;;;;13.16;67.42;100990.02;2153791;80;21828;-77
2021/09/22 14:10:23;;;;;;;12.05;7.83;;;;;;;13.24;68.18;100993.22;2163222;80;21471;-80
2021/09/22 14:13:25;;;;;;;10.65;7.50;;;;;;;13.42;67.91;100999.27;2156218;80;21002;-80
2021/09/22 14:16:26;;;;;;;12.60;8.43;;;;;;;13.38;67.49;100996.61;2158548;80;20978;-80
2021/09/22 14:19:28;;;;;;;13.53;8.53;;;;;;;13.33;67.77;100992.77;2157163;80;20990;-79
2021/09/22 14:22:29;;;;;;;9.68;8.23;;;;;;;13.31;67.80;100988.09;2153037;80;20917;-82
2021/09/22 14:25:33;;;;;;;11.78;9.05;;;;;;;13.30;68.15;100985.10;2153950;80;21033;-80
2021/09/22 14:28:34;;;;;;;13.55;8.70;;;;;;;13.32;68.25;100987.08;2157222;80;21023;-79
2021/09/22 14:31:36;;;;;;;10.25;8.15;;;;;;;13.29;67.96;100991.41;2157842;80;21469;-80
2021/09/22 14:34:37;;;;;;;12.13;9.08;;;;;;;13.27;68.43;100984.92;2155389;80;20988;-80
2021/09/22 14:37:39;;;;;;;15.13;10.55;;;;;;;13.22;68.17;100987.20;2159162;80;21766;-80
2021/09/22 14:40:45;;;;;;;12.90;9.63;;;;;;;13.17;68.26;100988.19;2160743;80;21028;-80
2021/09/22 14:43:47;;;;;;;11.12;8.70;;;;;;;13.13;68.27;100990.86;2165689;80;21515;-80
2021/09/22 14:46:49;;;;;;;13.32;9.55;;;;;;;13.12;68.55;100990.50;2160603;80;21115;-80
2021/09/22 14:49:50;;;;;;;12.25;9.30;;;;;;;13.13;68.74;100992.19;2132693;81;21503;-81
2021/09/22 14:52:53;;;;;;;11.35;8.55;;;;;;;13.11;68.86;100987.00;2129517;81;21006;-81
2021/09/22 14:55:56;;;;;;;13.18;9.65;;;;;;;13.11;68.96;100985.67;2130251;81;22398;-81
2021/09/22 14:58:58;;;;;;;10.15;8.53;;;;;;;13.08;68.96;100983.84;2132533;81;21009;-80
2021/09/22 15:02:01;;;;;;;13.05;9.55;;;;;;;13.03;69.07;100984.81;2132898;81;21037;-80
2021/09/22 15:05:04;;;;;;;11.63;8.83;;;;;;;12.96;69.25;100981.98;2132341;81;21085;-80
2021/09/22 15:08:09;;;;;;;11.93;8.75;;;;;;;12.90;69.35;100986.12;2126463;80;20998;-80
2021/09/22 15:11:10;;;;;;;11.75;8.65;;;;;;;12.84;69.28;100990.76;2129455;81;21555;-81